Darstellungsparameter: Aktuell verwendete Einstellungen:
Skalierung der Graphiken ... ?
xyx+y,   Skalierungsfaktor:      Skalierung: Modus: x, Faktor: 1
Darstellungszeitraum ... ?
Vom - - bis: - -   Zeitraum: 14.06.2010 - 20.06.2010
Min/Max/Avg-Anzeige ... ?
Zeige MMA aktuell
Zeige MMA Monat
Zeige MMA alles
Zeige --A aktuell
Zeige --A Monat
Zeige --A alles
Keine MMA-Anzeige
MMA:
Average (ber die Originaldaten)
MMA-Basis: 14.06.2010 - 20.06.2010
Quicknavigation für Darstellung... ?
Tage:      1T, 2T, 3T, 5T -1T -2T -3T -5T +1T +2T +3T +5T
Wochen: 1W, 2W, 3W -1W -2W -3W +1W +2W +3W
Monate: 1M, 3M, 6M -1M -3M -6M +1M +3M +6M
Jahre:    1J, 3J, 5J, 10J -1J -3J -5J -10J +1J +3J +5J +10J
Nutze für die Darstellung ... ?
Originaldaten oder Mittelwerte auf ...
Stundenbasis Tagesbasis Wochenbasis
Monatsbasis Jahresbasis      Datenbasis: Original-Daten
Darstellen als:
Statistik (Auto) Statistik J:M      Darstellung:
Zur Graphik,    zurück zur Übersicht aller Sensoren.
 
Tabellarische Datenbersicht: ?
 
Sensor: Nr:Datum:Temp:Abs-Feuchte:Windchill:Wind:
Aussen-T/F 1 14-06-2010 00:10:02 15.7 C 7.36 g/m*3 15.7 C 0 km/h
2 14-06-2010 00:22:02 15.4 C 7.49 g/m*3 15.4 C 0 km/h
3 14-06-2010 00:34:02 15.4 C 7.49 g/m*3 15.4 C 0 km/h
4 14-06-2010 00:46:02 15.4 C 7.62 g/m*3 15.4 C 0 km/h
5 14-06-2010 00:58:02 15.3 C 7.44 g/m*3 15.3 C 0 km/h
6 14-06-2010 01:10:02 14.9 C 7.52 g/m*3 14.9 C 0 km/h
7 14-06-2010 01:22:02 14.8 C 7.35 g/m*3 14.8 C 0 km/h
8 14-06-2010 01:34:02 14.5 C 7.34 g/m*3 14.5 C 0 km/h
9 14-06-2010 01:46:02 14.3 C 7.25 g/m*3 14.3 C 0 km/h
10 14-06-2010 01:58:02 14.1 C 7.4 g/m*3 14.1 C 0 km/h
11 14-06-2010 02:10:02 13.9 C 7.67 g/m*3 13.9 C 0 km/h
12 14-06-2010 02:22:03 13.4 C 7.44 g/m*3 13.4 C 0 km/h
13 14-06-2010 02:34:03 13.5 C 7.72 g/m*3 13.5 C 0 km/h
14 14-06-2010 02:46:03 13.3 C 7.74 g/m*3 13.3 C 0 km/h
15 14-06-2010 02:58:03 13.2 C 7.81 g/m*3 13.2 C 0 km/h
16 14-06-2010 03:10:03 13 C 7.83 g/m*3 13 C 0 km/h
17 14-06-2010 03:22:03 12.9 C 7.89 g/m*3 12.9 C 0 km/h
18 14-06-2010 03:34:03 12.7 C 7.9 g/m*3 12.7 C 0 km/h
19 14-06-2010 03:46:03 12.5 C 7.81 g/m*3 12.5 C 0 km/h
20 14-06-2010 03:58:03 12.2 C 7.88 g/m*3 12.2 C 0 km/h
21 14-06-2010 04:10:03 12.2 C 7.88 g/m*3 12.2 C 0 km/h
22 14-06-2010 04:22:03 12.1 C 7.94 g/m*3 12.1 C 0 km/h
23 14-06-2010 04:34:03 11.9 C 7.84 g/m*3 11.9 C 0 km/h
24 14-06-2010 04:46:03 11.9 C 7.84 g/m*3 11.9 C 0 km/h
25 14-06-2010 04:58:03 11.8 C 7.79 g/m*3 11.8 C 0 km/h
Sensor: Nr:Datum:Temp:Abs-Feuchte:Windchill:Wind:
Aussen-T/F 26 14-06-2010 05:10:03 11.8 C 7.79 g/m*3 11.8 C 0 km/h
27 14-06-2010 05:22:03 11.6 C 7.69 g/m*3 11.6 C 0 km/h
28 14-06-2010 05:34:03 11.4 C 7.6 g/m*3 11.4 C 0 km/h
29 14-06-2010 05:46:03 11.3 C 7.55 g/m*3 11.3 C 0 km/h
30 14-06-2010 05:58:03 11.3 C 7.65 g/m*3 11.3 C 0 km/h
31 14-06-2010 06:10:03 11.3 C 7.75 g/m*3 11.3 C 0 km/h
32 14-06-2010 06:22:03 11.2 C 7.7 g/m*3 11.2 C 0 km/h
33 14-06-2010 06:34:03 11.3 C 7.85 g/m*3 11.3 C 0 km/h
34 14-06-2010 06:46:03 11.4 C 7.9 g/m*3 11.4 C 0 km/h
35 14-06-2010 06:58:04 11.2 C 7.91 g/m*3 11.2 C 0 km/h
36 14-06-2010 07:10:01 11.2 C 8.01 g/m*3 11.2 C 0 km/h
37 14-06-2010 07:22:02 11.5 C 8.26 g/m*3 11.5 C 0 km/h
38 14-06-2010 07:34:01 11.7 C 8.26 g/m*3 11.7 C 0 km/h
39 14-06-2010 07:46:01 11.9 C 8.26 g/m*3 11.9 C 0 km/h
40 14-06-2010 07:58:01 12.2 C 8.31 g/m*3 12.2 C 0 km/h
41 14-06-2010 08:10:02 12.5 C 8.36 g/m*3 12.5 C 0 km/h
42 14-06-2010 08:22:02 12.9 C 8.34 g/m*3 12.9 C 0 km/h
43 14-06-2010 08:34:01 13.2 C 8.38 g/m*3 13.2 C 0 km/h
44 14-06-2010 08:46:02 13.8 C 8.46 g/m*3 13.8 C 0 km/h
45 14-06-2010 08:58:02 14.5 C 8.58 g/m*3 14.5 C 0 km/h
46 14-06-2010 09:10:01 15 C 8.33 g/m*3 15 C 0 km/h
47 14-06-2010 09:22:02 15.9 C 8.4 g/m*3 15.9 C 0 km/h
48 14-06-2010 09:34:01 17 C 7.96 g/m*3 17 C 0 km/h
49 14-06-2010 09:46:03 17.8 C 7.74 g/m*3 17.8 C 0 km/h
50 14-06-2010 09:58:03 18.4 C 7.55 g/m*3 18.4 C 0 km/h
Sensor: Nr:Datum:Temp:Abs-Feuchte:Windchill:Wind:
Aussen-T/F 51 14-06-2010 10:10:02 18.8 C 7.57 g/m*3 18.8 C 0 km/h
52 14-06-2010 10:22:02 19.5 C 7.55 g/m*3 19.5 C 0 km/h
53 14-06-2010 10:34:02 20.3 C 7.39 g/m*3 20.3 C 0 km/h
54 14-06-2010 10:46:02 20.4 C 7.08 g/m*3 20.4 C 0 km/h
55 14-06-2010 10:58:02 20.8 C 7.06 g/m*3 20.8 C 0 km/h
56 14-06-2010 11:10:01 21.5 C 6.98 g/m*3 21.5 C 0 km/h
57 14-06-2010 11:22:02 22.3 C 7.11 g/m*3 22.3 C 0 km/h
58 14-06-2010 11:34:02 23.1 C 6.61 g/m*3 23.1 C 0 km/h
59 14-06-2010 11:46:02 23.6 C 6.17 g/m*3 23.6 C 0 km/h
60 14-06-2010 11:58:02 24.1 C 5.47 g/m*3 24.1 C 0 km/h
61 14-06-2010 12:10:02 24.5 C 5.82 g/m*3 24.5 C 0 km/h
62 14-06-2010 12:22:02 24.6 C 5.63 g/m*3 24.6 C 0 km/h
63 14-06-2010 12:34:02 23.9 C 5.41 g/m*3 23.9 C 0 km/h
64 14-06-2010 12:46:02 25.7 C 5.51 g/m*3 25.7 C 0 km/h
65 14-06-2010 12:58:02 27.2 C 5.2 g/m*3 27.2 C 0 km/h
66 14-06-2010 13:10:02 26.5 C 5.01 g/m*3 26.5 C 0 km/h
67 14-06-2010 13:22:01 23.9 C 5.41 g/m*3 23.9 C 0 km/h
68 14-06-2010 13:34:02 27.8 C 5.38 g/m*3 27.8 C 0 km/h
69 14-06-2010 13:46:02 27.1 C 5.18 g/m*3 27.1 C 0 km/h
70 14-06-2010 13:58:02 26.4 C 4.98 g/m*3 26.4 C 0 km/h
71 14-06-2010 14:10:02 27.4 C 5.26 g/m*3 27.4 C 0 km/h
72 14-06-2010 14:22:01 28 C 5.44 g/m*3 28 C 0 km/h
73 14-06-2010 14:34:02 27.8 C 5.38 g/m*3 27.8 C 0 km/h
74 14-06-2010 14:46:02 27 C 5.15 g/m*3 27 C 0 km/h
75 14-06-2010 14:58:02 27 C 5.15 g/m*3 27 C 0 km/h
Sensor: Nr:Datum:Temp:Abs-Feuchte:Windchill:Wind:
Aussen-T/F 76 14-06-2010 15:10:02 26.3 C 5.45 g/m*3 26.3 C 0 km/h
77 14-06-2010 15:22:02 25.6 C 5.24 g/m*3 25.6 C 0 km/h
78 14-06-2010 15:34:02 26.7 C 5.06 g/m*3 26.7 C 0 km/h
79 14-06-2010 15:46:02 28 C 5.44 g/m*3 28 C 0 km/h
80 14-06-2010 15:58:02 27.9 C 5.41 g/m*3 27.9 C 0 km/h
81 14-06-2010 16:10:02 29.1 C 5.78 g/m*3 29.1 C 0 km/h
82 14-06-2010 16:22:02 29.1 C 5.78 g/m*3 29.1 C 0 km/h
83 14-06-2010 16:34:02 29.8 C 6 g/m*3 29.8 C 0 km/h
84 14-06-2010 16:46:01 30.2 C 6.13 g/m*3 30.2 C 0 km/h
85 14-06-2010 16:58:01 30.9 C 6.37 g/m*3 30.9 C 0 km/h
86 14-06-2010 17:10:02 30 C 6.06 g/m*3 30 C 0 km/h
87 14-06-2010 17:22:02 28.7 C 5.65 g/m*3 28.7 C 0 km/h
88 14-06-2010 17:34:02 29.7 C 5.97 g/m*3 29.7 C 0 km/h
89 14-06-2010 17:46:02 29 C 5.74 g/m*3 29 C 0 km/h
90 14-06-2010 17:58:02 28.3 C 5.53 g/m*3 28.3 C 0 km/h
91 14-06-2010 18:10:02 27.7 C 5.35 g/m*3 27.7 C 0 km/h
92 14-06-2010 18:22:02 29.4 C 5.87 g/m*3 29.4 C 0 km/h
93 14-06-2010 18:34:01 29.5 C 5.9 g/m*3 29.5 C 0 km/h
94 14-06-2010 18:46:02 28.6 C 5.62 g/m*3 28.6 C 0 km/h
95 14-06-2010 18:58:02 27.2 C 5.2 g/m*3 27.2 C 0 km/h
96 14-06-2010 19:10:01 25.7 C 5.75 g/m*3 25.7 C 0 km/h
97 14-06-2010 19:22:01 24.7 C 6.11 g/m*3 24.7 C 0 km/h
98 14-06-2010 19:34:01 24.4 C 6.68 g/m*3 24.4 C 0 km/h
99 14-06-2010 19:46:02 25.5 C 6.39 g/m*3 25.5 C 0 km/h
100 14-06-2010 19:58:02 25.7 C 6.46 g/m*3 25.7 C 0 km/h
Sensor: Nr:Datum:Temp:Abs-Feuchte:Windchill:Wind:
Aussen-T/F 101 14-06-2010 20:10:02 25.3 C 6.32 g/m*3 25.3 C 0 km/h
102 14-06-2010 20:22:02 24.2 C 6.6 g/m*3 24.2 C 0 km/h
103 14-06-2010 20:34:02 22.9 C 6.54 g/m*3 22.9 C 0 km/h
104 14-06-2010 20:46:01 22.2 C 6.09 g/m*3 22.2 C 0 km/h
105 14-06-2010 20:58:01 21.7 C 6.1 g/m*3 21.7 C 0 km/h
106 14-06-2010 21:10:02 21.1 C 6.08 g/m*3 21.1 C 0 km/h
107 14-06-2010 21:22:01 20.4 C 6.19 g/m*3 20.4 C 0 km/h
108 14-06-2010 21:34:02 20 C 6.22 g/m*3 20 C 0 km/h
109 14-06-2010 21:46:02 19.6 C 6.08 g/m*3 19.6 C 0 km/h
110 14-06-2010 21:58:02 19.2 C 6.1 g/m*3 19.2 C 0 km/h
111 14-06-2010 22:10:02 18.9 C 6.32 g/m*3 18.9 C 0 km/h
112 14-06-2010 22:22:02 18.7 C 6.72 g/m*3 18.7 C 0 km/h
113 14-06-2010 22:34:01 18.6 C 7.64 g/m*3 18.6 C 0 km/h
114 14-06-2010 22:46:02 18.5 C 8.07 g/m*3 18.5 C 0 km/h
115 14-06-2010 22:58:02 18.4 C 8.34 g/m*3 18.4 C 0 km/h
116 14-06-2010 23:10:01 18.2 C 8.39 g/m*3 18.2 C 0 km/h
117 14-06-2010 23:22:01 18.4 C 8.65 g/m*3 18.4 C 0 km/h
118 14-06-2010 23:34:02 18.4 C 8.49 g/m*3 18.4 C 0 km/h
119 14-06-2010 23:46:02 18.5 C 8.7 g/m*3 18.5 C 0 km/h
120 14-06-2010 23:58:02 18.3 C 8.6 g/m*3 18.3 C 0 km/h
121 15-06-2010 00:10:01 17.7 C 8.6 g/m*3 17.7 C 0 km/h
122 15-06-2010 00:22:02 17.2 C 8.64 g/m*3 17.2 C 0 km/h
123 15-06-2010 00:34:02 17.1 C 8.88 g/m*3 17.1 C 0 km/h
124 15-06-2010 00:46:02 16.8 C 8.72 g/m*3 16.8 C 0 km/h
125 15-06-2010 00:58:02 16.6 C 8.76 g/m*3 16.6 C 0 km/h
Sensor: Nr:Datum:Temp:Abs-Feuchte:Windchill:Wind:
Aussen-T/F 126 15-06-2010 01:10:02 16.4 C 8.93 g/m*3 16.4 C 0 km/h
127 15-06-2010 01:22:02 16.3 C 9.02 g/m*3 16.3 C 0 km/h
128 15-06-2010 01:34:01 16 C 8.99 g/m*3 16 C 0 km/h
129 15-06-2010 01:46:02 15.8 C 9.02 g/m*3 15.8 C 0 km/h
130 15-06-2010 01:58:02 15.6 C 9.18 g/m*3 15.6 C 0 km/h
131 15-06-2010 02:10:01 15.5 C 9.25 g/m*3 15.5 C 0 km/h
132 15-06-2010 02:22:01 15.4 C 9.2 g/m*3 15.4 C 0 km/h
133 15-06-2010 02:34:02 15.3 C 9.14 g/m*3 15.3 C 0 km/h
134 15-06-2010 02:47:04 15.1 C 9.16 g/m*3 15.1 C 0 km/h
135 15-06-2010 02:59:04 15 C 9.36 g/m*3 15 C 0 km/h
136 15-06-2010 03:11:03 14.9 C 9.43 g/m*3 14.9 C 0 km/h
137 15-06-2010 03:23:03 14.8 C 9.5 g/m*3 14.8 C 0 km/h
138 15-06-2010 03:35:02 14.6 C 9.26 g/m*3 14.6 C 0 km/h
139 15-06-2010 03:47:02 14.6 C 9.26 g/m*3 14.6 C 0 km/h
140 15-06-2010 03:59:02 14.3 C 9.09 g/m*3 14.3 C 0 km/h
141 15-06-2010 04:11:02 14.2 C 9.16 g/m*3 14.2 C 0 km/h
142 15-06-2010 04:23:02 13.9 C 9.23 g/m*3 13.9 C 0 km/h
143 15-06-2010 04:35:01 13.7 C 9.12 g/m*3 13.7 C 0 km/h
144 15-06-2010 04:47:02 13.5 C 9.12 g/m*3 13.5 C 0 km/h
145 15-06-2010 04:59:02 13.5 C 9.24 g/m*3 13.5 C 0 km/h
146 15-06-2010 05:11:01 13.5 C 9.24 g/m*3 13.5 C 0 km/h
147 15-06-2010 05:23:01 13.5 C 9.36 g/m*3 13.5 C 0 km/h
148 15-06-2010 05:35:02 13.5 C 9.36 g/m*3 13.5 C 0 km/h
149 15-06-2010 05:47:02 13.4 C 9.3 g/m*3 13.4 C 0 km/h
150 15-06-2010 05:59:03 13.5 C 9.36 g/m*3 13.5 C 0 km/h
Sensor: Nr:Datum:Temp:Abs-Feuchte:Windchill:Wind:
Aussen-T/F 151 15-06-2010 06:11:01 13.6 C 9.42 g/m*3 13.6 C 0 km/h
152 15-06-2010 06:23:02 13.5 C 9.36 g/m*3 13.5 C 0 km/h
153 15-06-2010 06:35:02 13.5 C 9.36 g/m*3 13.5 C 0 km/h
154 15-06-2010 06:47:01 13.5 C 9.47 g/m*3 13.5 C 0 km/h
155 15-06-2010 06:59:01 13.8 C 9.65 g/m*3 13.8 C 0 km/h
156 15-06-2010 07:11:01 14 C 9.77 g/m*3 14 C 0 km/h
157 15-06-2010 07:23:01 14.4 C 9.89 g/m*3 14.4 C 0 km/h
158 15-06-2010 07:35:02 14.9 C 9.94 g/m*3 14.9 C 0 km/h
159 15-06-2010 07:47:02 15.4 C 9.72 g/m*3 15.4 C 0 km/h
160 15-06-2010 07:59:02 15.9 C 9.75 g/m*3 15.9 C 0 km/h
161 15-06-2010 08:11:01 16.3 C 9.57 g/m*3 16.3 C 0 km/h
162 15-06-2010 08:23:02 16.7 C 9.52 g/m*3 16.7 C 0 km/h
163 15-06-2010 08:35:01 16.5 C 8.85 g/m*3 16.5 C 0 km/h
164 15-06-2010 08:47:02 16.8 C 8.86 g/m*3 16.8 C 0 km/h
165 15-06-2010 08:59:02 17.1 C 8.73 g/m*3 17.1 C 0 km/h
166 15-06-2010 09:11:01 17.1 C 8.44 g/m*3 17.1 C 0 km/h
167 15-06-2010 09:23:01 17.2 C 8.35 g/m*3 17.2 C 0 km/h
168 15-06-2010 09:35:02 17.8 C 8.5 g/m*3 17.8 C 0 km/h
169 15-06-2010 09:47:02 17.9 C 8.4 g/m*3 17.9 C 0 km/h
170 15-06-2010 09:59:02 18.5 C 8.07 g/m*3 18.5 C 0 km/h
171 15-06-2010 10:11:01 19 C 8.15 g/m*3 19 C 0 km/h
172 15-06-2010 10:23:01 20 C 7.78 g/m*3 20 C 0 km/h
173 15-06-2010 10:35:02 20 C 7.95 g/m*3 20 C 0 km/h
174 15-06-2010 10:47:02 19.9 C 7.9 g/m*3 19.9 C 0 km/h
175 15-06-2010 10:59:02 19.7 C 7.98 g/m*3 19.7 C 0 km/h
Sensor: Nr:Datum:Temp:Abs-Feuchte:Windchill:Wind:
Aussen-T/F 176 15-06-2010 11:11:02 20.3 C 7.91 g/m*3 20.3 C 0 km/h
177 15-06-2010 11:23:02 20.9 C 8.01 g/m*3 20.9 C 0 km/h
178 15-06-2010 11:35:02 20.4 C 7.78 g/m*3 20.4 C 0 km/h
179 15-06-2010 11:47:02 21.3 C 8.2 g/m*3 21.3 C 0 km/h
180 15-06-2010 11:59:02 20.6 C 8.23 g/m*3 20.6 C 0 km/h
181 15-06-2010 12:11:02 21.1 C 8.29 g/m*3 21.1 C 0 km/h
182 15-06-2010 12:23:02 21.2 C 8.15 g/m*3 21.2 C 0 km/h
183 15-06-2010 12:35:02 21.2 C 8.15 g/m*3 21.2 C 0 km/h
184 15-06-2010 12:47:02 21.6 C 8.16 g/m*3 21.6 C 0 km/h
185 15-06-2010 12:59:02 21.2 C 8.15 g/m*3 21.2 C 0 km/h
186 15-06-2010 13:11:02 20.8 C 8.15 g/m*3 20.8 C 0 km/h
187 15-06-2010 13:23:02 21.3 C 7.83 g/m*3 21.3 C 0 km/h
188 15-06-2010 13:35:02 21 C 7.69 g/m*3 21 C 0 km/h
189 15-06-2010 13:47:02 21.6 C 7.78 g/m*3 21.6 C 0 km/h
190 15-06-2010 13:59:02 23.1 C 7.03 g/m*3 23.1 C 0 km/h
191 15-06-2010 14:11:02 22.1 C 6.83 g/m*3 22.1 C 0 km/h
192 15-06-2010 14:23:02 21.9 C 6.95 g/m*3 21.9 C 0 km/h
193 15-06-2010 14:35:02 21.6 C 7.02 g/m*3 21.6 C 0 km/h
194 15-06-2010 14:47:02 23 C 6.78 g/m*3 23 C 0 km/h
195 15-06-2010 14:59:02 23.9 C 6.71 g/m*3 23.9 C 0 km/h
196 15-06-2010 15:11:02 24.1 C 5.91 g/m*3 24.1 C 0 km/h
197 15-06-2010 15:23:03 23.7 C 5.78 g/m*3 23.7 C 0 km/h
198 15-06-2010 15:35:02 23.9 C 6.06 g/m*3 23.9 C 0 km/h
199 15-06-2010 15:47:03 23.6 C 6.17 g/m*3 23.6 C 0 km/h
200 15-06-2010 15:59:03 23.5 C 6.13 g/m*3 23.5 C 0 km/h
Sensor: Nr:Datum:Temp:Abs-Feuchte:Windchill:Wind:
Aussen-T/F 201 15-06-2010 16:11:02 24.2 C 6.16 g/m*3 24.2 C 0 km/h
202 15-06-2010 16:23:03 23.7 C 5.99 g/m*3 23.7 C 0 km/h
203 15-06-2010 16:35:02 24.6 C 5.85 g/m*3 24.6 C 0 km/h
204 15-06-2010 16:47:03 24.7 C 5.66 g/m*3 24.7 C 0 km/h
205 15-06-2010 16:59:03 24.9 C 5.49 g/m*3 24.9 C 0 km/h
206 15-06-2010 17:11:02 24.6 C 5.63 g/m*3 24.6 C 0 km/h
207 15-06-2010 17:23:02 23.7 C 5.56 g/m*3 23.7 C 0 km/h
208 15-06-2010 17:35:02 24.2 C 5.72 g/m*3 24.2 C 0 km/h
209 15-06-2010 17:47:02 23.4 C 5.47 g/m*3 23.4 C 0 km/h
210 15-06-2010 17:59:02 24.9 C 5.72 g/m*3 24.9 C 0 km/h
211 15-06-2010 18:11:02 25.1 C 5.56 g/m*3 25.1 C 0 km/h
212 15-06-2010 18:23:02 24.6 C 5.85 g/m*3 24.6 C 0 km/h
213 15-06-2010 18:35:02 24.1 C 5.47 g/m*3 24.1 C 0 km/h
214 15-06-2010 18:47:02 23.5 C 5.71 g/m*3 23.5 C 0 km/h
215 15-06-2010 18:59:02 24.3 C 5.53 g/m*3 24.3 C 0 km/h
216 15-06-2010 19:11:01 23.1 C 5.37 g/m*3 23.1 C 0 km/h
217 15-06-2010 19:23:02 23.3 C 5.44 g/m*3 23.3 C 0 km/h
218 15-06-2010 19:35:02 23.2 C 5.41 g/m*3 23.2 C 0 km/h
219 15-06-2010 19:47:01 23.4 C 5.47 g/m*3 23.4 C 0 km/h
220 15-06-2010 19:59:01 23.8 C 5.59 g/m*3 23.8 C 0 km/h
221 15-06-2010 20:11:01 22.8 C 5.49 g/m*3 22.8 C 0 km/h
222 15-06-2010 20:23:01 21.7 C 5.72 g/m*3 21.7 C 0 km/h
223 15-06-2010 20:35:02 21.9 C 5.98 g/m*3 21.9 C 0 km/h
224 15-06-2010 20:47:02 21.1 C 5.53 g/m*3 21.1 C 0 km/h
225 15-06-2010 20:59:02 20.4 C 5.66 g/m*3 20.4 C 0 km/h
Sensor: Nr:Datum:Temp:Abs-Feuchte:Windchill:Wind:
Aussen-T/F 226 15-06-2010 21:11:02 20 C 5.36 g/m*3 20 C 0 km/h
227 15-06-2010 21:23:02 19.7 C 5.77 g/m*3 19.7 C 0 km/h
228 15-06-2010 21:35:02 19.2 C 5.77 g/m*3 19.2 C 0 km/h
229 15-06-2010 21:47:02 18.7 C 5.6 g/m*3 18.7 C 0 km/h
230 15-06-2010 21:59:02 18.3 C 5.63 g/m*3 18.3 C 0 km/h
231 15-06-2010 22:11:02 18 C 5.53 g/m*3 18 C 0 km/h
232 15-06-2010 22:24:01 17.7 C 5.58 g/m*3 17.7 C 0 km/h
233 15-06-2010 22:36:01 17.3 C 5.45 g/m*3 17.3 C 0 km/h
234 15-06-2010 22:48:01 17.1 C 5.39 g/m*3 17.1 C 0 km/h
235 15-06-2010 23:00:01 16.9 C 5.75 g/m*3 16.9 C 0 km/h
236 15-06-2010 23:12:01 16.6 C 5.79 g/m*3 16.6 C 0 km/h
237 15-06-2010 23:24:01 16.1 C 5.89 g/m*3 16.1 C 0 km/h
238 15-06-2010 23:36:01 15.8 C 6.06 g/m*3 15.8 C 0 km/h
239 15-06-2010 23:48:01 15.4 C 6.04 g/m*3 15.4 C 0 km/h
240 16-06-2010 00:00:01 15.2 C 6.1 g/m*3 15.2 C 0 km/h
241 16-06-2010 00:12:01 15 C 5.9 g/m*3 15 C 0 km/h
242 16-06-2010 00:24:02 14.6 C 6.01 g/m*3 14.6 C 0 km/h
243 16-06-2010 00:36:02 14.4 C 6.06 g/m*3 14.4 C 0 km/h
244 16-06-2010 00:48:02 14.2 C 6.11 g/m*3 14.2 C 0 km/h
245 16-06-2010 01:00:02 13.8 C 6.08 g/m*3 13.8 C 0 km/h
246 16-06-2010 01:12:02 13.5 C 6.2 g/m*3 13.5 C 0 km/h
247 16-06-2010 01:24:02 13.4 C 6.28 g/m*3 13.4 C 0 km/h
248 16-06-2010 01:36:02 13.2 C 6.2 g/m*3 13.2 C 0 km/h
249 16-06-2010 01:48:02 13.1 C 6.28 g/m*3 13.1 C 0 km/h
250 16-06-2010 02:00:02 13 C 6.24 g/m*3 13 C 0 km/h
Sensor: Nr:Datum:Temp:Abs-Feuchte:Windchill:Wind:
Aussen-T/F 251 16-06-2010 02:12:02 12.9 C 6.2 g/m*3 12.9 C 0 km/h
252 16-06-2010 02:24:02 12.7 C 6.12 g/m*3 12.7 C 0 km/h
253 16-06-2010 02:36:02 12.5 C 6.05 g/m*3 12.5 C 0 km/h
254 16-06-2010 02:48:02 12.4 C 6.12 g/m*3 12.4 C 0 km/h
255 16-06-2010 03:00:02 12.2 C 6.04 g/m*3 12.2 C 0 km/h
256 16-06-2010 03:12:02 12 C 6.07 g/m*3 12 C 0 km/h
257 16-06-2010 03:24:02 11.8 C 6.1 g/m*3 11.8 C 0 km/h
258 16-06-2010 03:36:02 11.6 C 6.13 g/m*3 11.6 C 0 km/h
259 16-06-2010 03:48:02 11.5 C 6.09 g/m*3 11.5 C 0 km/h
260 16-06-2010 04:00:02 11.4 C 6.16 g/m*3 11.4 C 0 km/h
261 16-06-2010 04:12:02 11.3 C 6.22 g/m*3 11.3 C 0 km/h
262 16-06-2010 04:24:03 11.1 C 6.14 g/m*3 11.1 C 0 km/h
263 16-06-2010 04:36:03 11.1 C 6.04 g/m*3 11.1 C 0 km/h
264 16-06-2010 04:48:03 11.1 C 6.14 g/m*3 11.1 C 0 km/h
265 16-06-2010 05:00:03 10.9 C 6.17 g/m*3 10.9 C 0 km/h
266 16-06-2010 05:12:03 10.8 C 6.23 g/m*3 10.8 C 0 km/h
267 16-06-2010 05:24:03 10.6 C 6.15 g/m*3 10.6 C 0 km/h
268 16-06-2010 05:36:03 10.5 C 6.21 g/m*3 10.5 C 0 km/h
269 16-06-2010 05:48:03 10.5 C 6.21 g/m*3 10.5 C 0 km/h
270 16-06-2010 06:00:03 10.5 C 6.3 g/m*3 10.5 C 0 km/h
271 16-06-2010 06:12:03 10.6 C 6.34 g/m*3 10.6 C 0 km/h
272 16-06-2010 06:24:03 10.7 C 6.48 g/m*3 10.7 C 0 km/h
273 16-06-2010 06:36:03 10.8 C 6.52 g/m*3 10.8 C 0 km/h
274 16-06-2010 06:48:03 10.9 C 6.56 g/m*3 10.9 C 0 km/h
275 16-06-2010 07:00:03 11.1 C 6.65 g/m*3 11.1 C 0 km/h
Sensor: Nr:Datum:Temp:Abs-Feuchte:Windchill:Wind:
Aussen-T/F 276 16-06-2010 07:12:02 11.5 C 6.71 g/m*3 11.5 C 0 km/h
277 16-06-2010 07:24:01 11.9 C 6.88 g/m*3 11.9 C 0 km/h
278 16-06-2010 07:36:02 12.1 C 6.86 g/m*3 12.1 C 0 km/h
279 16-06-2010 07:48:02 12.5 C 6.82 g/m*3 12.5 C 0 km/h
280 16-06-2010 08:00:02 12.9 C 6.76 g/m*3 12.9 C 0 km/h
281 16-06-2010 08:12:02 13.3 C 6.47 g/m*3 13.3 C 0 km/h
282 16-06-2010 08:24:02 13.7 C 6.39 g/m*3 13.7 C 0 km/h
283 16-06-2010 08:36:02 14.1 C 6.07 g/m*3 14.1 C 0 km/h
284 16-06-2010 08:48:01 14.5 C 5.97 g/m*3 14.5 C 0 km/h
285 16-06-2010 09:00:01 14.9 C 5.86 g/m*3 14.9 C 0 km/h
286 16-06-2010 09:12:02 15.5 C 5.82 g/m*3 15.5 C 0 km/h
287 16-06-2010 09:24:01 16 C 5.59 g/m*3 16 C 0 km/h
288 16-06-2010 09:36:01 16.5 C 5.76 g/m*3 16.5 C 0 km/h
289 16-06-2010 09:48:02 16.9 C 5.61 g/m*3 16.9 C 0 km/h
290 16-06-2010 10:00:02 17.3 C 5.3 g/m*3 17.3 C 0 km/h
291 16-06-2010 10:12:02 17.5 C 5.37 g/m*3 17.5 C 0 km/h
292 16-06-2010 10:24:02 18.3 C 5.32 g/m*3 18.3 C 0 km/h
293 16-06-2010 10:36:02 18.6 C 5.09 g/m*3 18.6 C 0 km/h
294 16-06-2010 10:48:02 19.1 C 4.92 g/m*3 19.1 C 0 km/h
295 16-06-2010 11:00:02 19.4 C 4.5 g/m*3 19.4 C 0 km/h
296 16-06-2010 11:12:02 19.7 C 4.75 g/m*3 19.7 C 0 km/h
297 16-06-2010 11:24:02 20.3 C 4.4 g/m*3 20.3 C 0 km/h
298 16-06-2010 11:36:02 21.3 C 4.66 g/m*3 21.3 C 0 km/h
299 16-06-2010 11:48:02 21.7 C 4.58 g/m*3 21.7 C 0 km/h
300 16-06-2010 12:00:02 22.3 C 4.54 g/m*3 22.3 C 0 km/h
Sensor: Nr:Datum:Temp:Abs-Feuchte:Windchill:Wind:
Aussen-T/F 301 16-06-2010 12:12:02 23 C 4.32 g/m*3 23 C 0 km/h
302 16-06-2010 12:24:02 23.7 C 4.49 g/m*3 23.7 C 0 km/h
303 16-06-2010 12:36:01 23.7 C 4.28 g/m*3 23.7 C 0 km/h
304 16-06-2010 12:48:02 24.4 C 4.45 g/m*3 24.4 C 0 km/h
305 16-06-2010 13:00:02 25.1 C 4.63 g/m*3 25.1 C 0 km/h
306 16-06-2010 13:12:01 25.6 C 4.76 g/m*3 25.6 C 0 km/h
307 16-06-2010 13:24:02 26.2 C 4.92 g/m*3 26.2 C 0 km/h
308 16-06-2010 13:36:02 27.2 C 5.2 g/m*3 27.2 C 0 km/h
309 16-06-2010 13:48:02 27.1 C 5.18 g/m*3 27.1 C 0 km/h
310 16-06-2010 14:00:03 26.2 C 4.92 g/m*3 26.2 C 0 km/h
311 16-06-2010 14:12:02 25.4 C 4.71 g/m*3 25.4 C 0 km/h
312 16-06-2010 14:24:02 25.4 C 4.71 g/m*3 25.4 C 0 km/h
313 16-06-2010 14:36:02 25.3 C 4.68 g/m*3 25.3 C 0 km/h
314 16-06-2010 14:48:02 25.5 C 4.73 g/m*3 25.5 C 0 km/h
315 16-06-2010 15:00:02 25.7 C 4.79 g/m*3 25.7 C 0 km/h
316 16-06-2010 15:12:02 25.8 C 4.82 g/m*3 25.8 C 0 km/h
317 16-06-2010 15:24:01 26.2 C 4.92 g/m*3 26.2 C 0 km/h
318 16-06-2010 15:36:02 26.5 C 5.01 g/m*3 26.5 C 0 km/h
319 16-06-2010 15:48:02 26.6 C 5.03 g/m*3 26.6 C 0 km/h
320 16-06-2010 16:00:02 27.1 C 5.18 g/m*3 27.1 C 0 km/h
321 16-06-2010 16:12:02 27.2 C 5.2 g/m*3 27.2 C 0 km/h
322 16-06-2010 16:24:02 26.9 C 5.12 g/m*3 26.9 C 0 km/h
323 16-06-2010 16:36:02 27.3 C 5.23 g/m*3 27.3 C 0 km/h
324 16-06-2010 16:48:02 26.9 C 5.12 g/m*3 26.9 C 0 km/h
325 16-06-2010 17:00:02 26.5 C 5.01 g/m*3 26.5 C 0 km/h
Sensor: Nr:Datum:Temp:Abs-Feuchte:Windchill:Wind:
Aussen-T/F 326 16-06-2010 17:12:02 26.3 C 4.95 g/m*3 26.3 C 0 km/h
327 16-06-2010 17:24:02 27.9 C 5.41 g/m*3 27.9 C 0 km/h
328 16-06-2010 17:36:02 27.5 C 5.29 g/m*3 27.5 C 0 km/h
329 16-06-2010 17:48:01 26.5 C 5.01 g/m*3 26.5 C 0 km/h
330 16-06-2010 18:00:01 26.9 C 5.12 g/m*3 26.9 C 0 km/h
331 16-06-2010 18:12:02 26.9 C 5.12 g/m*3 26.9 C 0 km/h
332 16-06-2010 18:24:01 26.9 C 5.12 g/m*3 26.9 C 0 km/h
333 16-06-2010 18:36:01 26.3 C 4.95 g/m*3 26.3 C 0 km/h
334 16-06-2010 18:48:01 26.1 C 4.9 g/m*3 26.1 C 0 km/h
335 16-06-2010 19:00:01 26.6 C 5.03 g/m*3 26.6 C 0 km/h
336 16-06-2010 19:12:02 25.7 C 4.79 g/m*3 25.7 C 0 km/h
337 16-06-2010 19:24:01 24.9 C 4.58 g/m*3 24.9 C 0 km/h
338 16-06-2010 19:36:01 24.1 C 4.59 g/m*3 24.1 C 0 km/h
339 16-06-2010 19:48:01 24.1 C 5.03 g/m*3 24.1 C 0 km/h
340 16-06-2010 20:00:01 23.9 C 5.19 g/m*3 23.9 C 0 km/h
341 16-06-2010 20:12:01 23.1 C 5.17 g/m*3 23.1 C 0 km/h
342 16-06-2010 20:24:02 22.5 C 5.19 g/m*3 22.5 C 0 km/h
343 16-06-2010 20:36:01 22.5 C 5.39 g/m*3 22.5 C 0 km/h
344 16-06-2010 20:48:03 22.2 C 5.3 g/m*3 22.2 C 0 km/h
345 16-06-2010 21:00:03 21.9 C 5.79 g/m*3 21.9 C 0 km/h
346 16-06-2010 21:12:02 21.3 C 5.78 g/m*3 21.3 C 0 km/h
347 16-06-2010 21:24:03 20.8 C 5.79 g/m*3 20.8 C 0 km/h
348 16-06-2010 21:36:02 20.2 C 5.94 g/m*3 20.2 C 0 km/h
349 16-06-2010 21:48:02 19.6 C 5.91 g/m*3 19.6 C 0 km/h
350 16-06-2010 22:00:02 19.1 C 5.74 g/m*3 19.1 C 0 km/h
Sensor: Nr:Datum:Temp:Abs-Feuchte:Windchill:Wind:
Aussen-T/F 351 16-06-2010 22:12:02 18.8 C 5.8 g/m*3 18.8 C 0 km/h
352 16-06-2010 22:24:02 18.5 C 5.7 g/m*3 18.5 C 0 km/h
353 16-06-2010 22:36:02 18.3 C 5.79 g/m*3 18.3 C 0 km/h
354 16-06-2010 22:48:02 18.2 C 5.75 g/m*3 18.2 C 0 km/h
355 16-06-2010 23:00:02 18 C 5.84 g/m*3 18 C 0 km/h
356 16-06-2010 23:12:02 17.6 C 5.85 g/m*3 17.6 C 0 km/h
357 16-06-2010 23:24:02 17.2 C 5.86 g/m*3 17.2 C 0 km/h
358 16-06-2010 23:37:02 17 C 5.93 g/m*3 17 C 0 km/h
359 16-06-2010 23:49:02 16.8 C 6 g/m*3 16.8 C 0 km/h
360 17-06-2010 00:01:02 16.5 C 5.9 g/m*3 16.5 C 0 km/h
361 17-06-2010 00:13:02 16.3 C 5.97 g/m*3 16.3 C 0 km/h
362 17-06-2010 00:25:02 16 C 5.99 g/m*3 16 C 0 km/h
363 17-06-2010 00:37:02 16 C 5.99 g/m*3 16 C 0 km/h
364 17-06-2010 00:49:02 15.8 C 6.06 g/m*3 15.8 C 0 km/h
365 17-06-2010 01:01:02 15.6 C 6.12 g/m*3 15.6 C 0 km/h
366 17-06-2010 01:13:03 15.5 C 5.95 g/m*3 15.5 C 0 km/h
367 17-06-2010 01:25:03 15.4 C 6.04 g/m*3 15.4 C 0 km/h
368 17-06-2010 01:37:03 15.2 C 6.1 g/m*3 15.2 C 0 km/h
369 17-06-2010 01:49:03 15.2 C 6.1 g/m*3 15.2 C 0 km/h
370 17-06-2010 02:01:03 15 C 6.03 g/m*3 15 C 0 km/h
371 17-06-2010 02:13:03 14.9 C 6.12 g/m*3 14.9 C 0 km/h
372 17-06-2010 02:25:03 14.8 C 6.21 g/m*3 14.8 C 0 km/h
373 17-06-2010 02:37:03 14.6 C 6.13 g/m*3 14.6 C 0 km/h
374 17-06-2010 02:49:03 14.5 C 6.22 g/m*3 14.5 C 0 km/h
375 17-06-2010 03:01:03 14.5 C 6.22 g/m*3 14.5 C 0 km/h
Sensor: Nr:Datum:Temp:Abs-Feuchte:Windchill:Wind:
Aussen-T/F 376 17-06-2010 03:13:03 14.5 C 6.09 g/m*3 14.5 C 0 km/h
377 17-06-2010 03:25:03 14.5 C 6.09 g/m*3 14.5 C 0 km/h
378 17-06-2010 03:37:03 14.5 C 6.09 g/m*3 14.5 C 0 km/h
379 17-06-2010 03:49:03 14.4 C 6.06 g/m*3 14.4 C 0 km/h
380 17-06-2010 04:01:03 14.2 C 5.98 g/m*3 14.2 C 0 km/h
381 17-06-2010 04:13:03 14.3 C 6.02 g/m*3 14.3 C 0 km/h
382 17-06-2010 04:25:03 14.1 C 5.95 g/m*3 14.1 C 0 km/h
383 17-06-2010 04:37:03 14.1 C 5.83 g/m*3 14.1 C 0 km/h
384 17-06-2010 04:49:03 14 C 5.91 g/m*3 14 C 0 km/h
385 17-06-2010 05:01:03 13.8 C 5.84 g/m*3 13.8 C 0 km/h
386 17-06-2010 05:13:04 13.8 C 5.84 g/m*3 13.8 C 0 km/h
387 17-06-2010 05:25:04 13.6 C 5.77 g/m*3 13.6 C 0 km/h
388 17-06-2010 05:37:04 13.5 C 5.85 g/m*3 13.5 C 0 km/h
389 17-06-2010 05:49:04 13.4 C 5.93 g/m*3 13.4 C 0 km/h
390 17-06-2010 06:01:04 13.5 C 5.97 g/m*3 13.5 C 0 km/h
391 17-06-2010 06:13:04 13.5 C 5.97 g/m*3 13.5 C 0 km/h
392 17-06-2010 06:25:04 13.7 C 6.16 g/m*3 13.7 C 0 km/h
393 17-06-2010 06:37:04 14.1 C 6.19 g/m*3 14.1 C 0 km/h
394 17-06-2010 06:49:04 14.4 C 6.43 g/m*3 14.4 C 0 km/h
395 17-06-2010 07:01:03 14.4 C 6.3 g/m*3 14.4 C 0 km/h
396 17-06-2010 07:13:04 14.7 C 6.17 g/m*3 14.7 C 0 km/h
397 17-06-2010 07:25:02 15.1 C 6.19 g/m*3 15.1 C 0 km/h
398 17-06-2010 07:37:03 15.5 C 6.21 g/m*3 15.5 C 0 km/h
399 17-06-2010 07:49:02 16 C 6.54 g/m*3 16 C 0 km/h
400 17-06-2010 08:01:02 16.2 C 6.62 g/m*3 16.2 C 0 km/h
Sensor: Nr:Datum:Temp:Abs-Feuchte:Windchill:Wind:
Aussen-T/F 401 17-06-2010 08:13:03 16.5 C 6.6 g/m*3 16.5 C 0 km/h
402 17-06-2010 08:25:01 16.6 C 6.64 g/m*3 16.6 C 0 km/h
403 17-06-2010 08:37:02 16.6 C 6.5 g/m*3 16.6 C 0 km/h
404 17-06-2010 08:49:02 16.8 C 6.72 g/m*3 16.8 C 0 km/h
405 17-06-2010 09:01:02 16.7 C 6.68 g/m*3 16.7 C 0 km/h
406 17-06-2010 09:13:02 15.1 C 7.61 g/m*3 15.1 C 0 km/h
407 17-06-2010 09:25:01 13.9 C 8.27 g/m*3 13.9 C 0 km/h
408 17-06-2010 09:37:02 13.5 C 8.66 g/m*3 13.5 C 0 km/h
409 17-06-2010 09:49:01 13.1 C 8.67 g/m*3 13.1 C 0 km/h
410 17-06-2010 10:01:02 12.9 C 9.02 g/m*3 12.9 C 0 km/h
411 17-06-2010 10:13:02 12.9 C 9.47 g/m*3 12.9 C 0 km/h
412 17-06-2010 10:25:02 13 C 9.64 g/m*3 13 C 0 km/h
413 17-06-2010 10:37:02 13.2 C 9.99 g/m*3 13.2 C 0 km/h
414 17-06-2010 10:49:01 13.2 C 9.99 g/m*3 13.2 C 0 km/h
415 17-06-2010 11:01:02 13.5 C 10.29 g/m*3 13.5 C 0 km/h
416 17-06-2010 11:13:02 13.8 C 10.48 g/m*3 13.8 C 0 km/h
417 17-06-2010 11:25:02 13.8 C 10.48 g/m*3 13.8 C 0 km/h
418 17-06-2010 11:37:02 14 C 10.61 g/m*3 14 C 0 km/h
419 17-06-2010 11:49:02 13.9 C 10.67 g/m*3 13.9 C 0 km/h
420 17-06-2010 12:01:02 14 C 10.74 g/m*3 14 C 0 km/h
421 17-06-2010 12:13:02 14 C 10.74 g/m*3 14 C 0 km/h
422 17-06-2010 12:25:02 13.7 C 10.54 g/m*3 13.7 C 0 km/h
423 17-06-2010 12:37:01 13.8 C 10.72 g/m*3 13.8 C 0 km/h
424 17-06-2010 12:49:02 13.8 C 10.72 g/m*3 13.8 C 0 km/h
425 17-06-2010 13:01:01 13.7 C 10.66 g/m*3 13.7 C 0 km/h
Sensor: Nr:Datum:Temp:Abs-Feuchte:Windchill:Wind:
Aussen-T/F 426 17-06-2010 13:13:01 13.7 C 10.78 g/m*3 13.7 C 0 km/h
427 17-06-2010 13:25:02 13.8 C 10.84 g/m*3 13.8 C 0 km/h
428 17-06-2010 13:37:01 13.8 C 10.84 g/m*3 13.8 C 0 km/h
429 17-06-2010 13:49:02 13.9 C 10.91 g/m*3 13.9 C 0 km/h
430 17-06-2010 14:01:02 13.7 C 10.89 g/m*3 13.7 C 0 km/h
431 17-06-2010 14:13:02 13.9 C 11.03 g/m*3 13.9 C 0 km/h
432 17-06-2010 14:25:02 14.2 C 11.23 g/m*3 14.2 C 0 km/h
433 17-06-2010 14:37:02 14.6 C 11.51 g/m*3 14.6 C 0 km/h
434 17-06-2010 14:49:02 15.4 C 11.96 g/m*3 15.4 C 0 km/h
435 17-06-2010 15:01:01 15.9 C 12.19 g/m*3 15.9 C 0 km/h
436 17-06-2010 15:13:01 16.4 C 12.28 g/m*3 16.4 C 0 km/h
437 17-06-2010 15:25:02 16.6 C 12.29 g/m*3 16.6 C 0 km/h
438 17-06-2010 15:37:01 17 C 12.44 g/m*3 17 C 0 km/h
439 17-06-2010 15:49:02 17 C 11.87 g/m*3 17 C 0 km/h
440 17-06-2010 16:01:01 17 C 12.01 g/m*3 17 C 0 km/h
441 17-06-2010 16:13:01 16.9 C 12.08 g/m*3 16.9 C 0 km/h
442 17-06-2010 16:25:02 16.8 C 12.01 g/m*3 16.8 C 0 km/h
443 17-06-2010 16:37:01 16.9 C 12.08 g/m*3 16.9 C 0 km/h
444 17-06-2010 16:49:03 17 C 12.01 g/m*3 17 C 0 km/h
445 17-06-2010 17:01:02 17 C 11.87 g/m*3 17 C 0 km/h
446 17-06-2010 17:13:02 16.6 C 11.72 g/m*3 16.6 C 0 km/h
447 17-06-2010 17:25:02 16.5 C 11.8 g/m*3 16.5 C 0 km/h
448 17-06-2010 17:37:02 16.5 C 11.8 g/m*3 16.5 C 0 km/h
449 17-06-2010 17:49:02 16.9 C 11.94 g/m*3 16.9 C 0 km/h
450 17-06-2010 18:01:03 17 C 11.58 g/m*3 17 C 0 km/h
Sensor: Nr:Datum:Temp:Abs-Feuchte:Windchill:Wind:
Aussen-T/F 451 17-06-2010 18:13:04 17 C 11.43 g/m*3 17 C 0 km/h
452 17-06-2010 18:25:03 17.2 C 11.72 g/m*3 17.2 C 0 km/h
453 17-06-2010 18:37:03 17.2 C 11.86 g/m*3 17.2 C 0 km/h
454 17-06-2010 18:49:02 17.2 C 11.86 g/m*3 17.2 C 0 km/h
455 17-06-2010 19:01:02 16.8 C 11.72 g/m*3 16.8 C 0 km/h
456 17-06-2010 19:13:02 16.8 C 12.01 g/m*3 16.8 C 0 km/h
457 17-06-2010 19:25:01 16.7 C 12.08 g/m*3 16.7 C 0 km/h
458 17-06-2010 19:37:02 16.5 C 12.08 g/m*3 16.5 C 0 km/h
459 17-06-2010 19:49:02 16.3 C 11.93 g/m*3 16.3 C 0 km/h
460 17-06-2010 20:01:02 16.2 C 12 g/m*3 16.2 C 0 km/h
461 17-06-2010 20:13:02 16 C 11.85 g/m*3 16 C 0 km/h
462 17-06-2010 20:25:02 15.8 C 11.85 g/m*3 15.8 C 0 km/h
463 17-06-2010 20:37:02 15.6 C 11.7 g/m*3 15.6 C 0 km/h
464 17-06-2010 20:49:01 15.5 C 11.63 g/m*3 15.5 C 0 km/h
465 17-06-2010 21:01:02 15.5 C 11.76 g/m*3 15.5 C 0 km/h
466 17-06-2010 21:13:02 15.5 C 11.76 g/m*3 15.5 C 0 km/h
467 17-06-2010 21:25:02 15.6 C 11.84 g/m*3 15.6 C 0 km/h
468 17-06-2010 21:37:02 15.4 C 11.69 g/m*3 15.4 C 0 km/h
469 17-06-2010 21:49:02 15.3 C 11.62 g/m*3 15.3 C 0 km/h
470 17-06-2010 22:01:02 15.2 C 11.68 g/m*3 15.2 C 0 km/h
471 17-06-2010 22:13:02 15.2 C 11.68 g/m*3 15.2 C 0 km/h
472 17-06-2010 22:25:01 15 C 11.54 g/m*3 15 C 0 km/h
473 17-06-2010 22:37:02 15 C 11.54 g/m*3 15 C 0 km/h
474 17-06-2010 22:50:02 14.9 C 11.6 g/m*3 14.9 C 0 km/h
475 17-06-2010 23:02:02 14.8 C 11.53 g/m*3 14.8 C 0 km/h
Sensor: Nr:Datum:Temp:Abs-Feuchte:Windchill:Wind:
Aussen-T/F 476 17-06-2010 23:14:02 14.6 C 11.39 g/m*3 14.6 C 0 km/h
477 17-06-2010 23:26:02 14.4 C 11.25 g/m*3 14.4 C 0 km/h
478 17-06-2010 23:38:02 14.3 C 11.18 g/m*3 14.3 C 0 km/h
479 17-06-2010 23:50:02 14.2 C 11.11 g/m*3 14.2 C 0 km/h
480 18-06-2010 00:02:02 14 C 10.98 g/m*3 14 C 0 km/h
481 18-06-2010 00:14:02 13.8 C 10.84 g/m*3 13.8 C 0 km/h
482 18-06-2010 00:26:02 13.7 C 10.89 g/m*3 13.7 C 0 km/h
483 18-06-2010 00:38:02 13.7 C 10.89 g/m*3 13.7 C 0 km/h
484 18-06-2010 00:50:02 13.8 C 10.96 g/m*3 13.8 C 0 km/h
485 18-06-2010 01:02:02 14 C 11.1 g/m*3 14 C 0 km/h
486 18-06-2010 01:14:02 14 C 11.1 g/m*3 14 C 0 km/h
487 18-06-2010 01:26:02 14 C 11.1 g/m*3 14 C 0 km/h
488 18-06-2010 01:38:02 14.1 C 11.17 g/m*3 14.1 C 0 km/h
489 18-06-2010 01:50:02 14.1 C 11.17 g/m*3 14.1 C 0 km/h
490 18-06-2010 02:02:02 14 C 11.1 g/m*3 14 C 0 km/h
491 18-06-2010 02:14:02 13.9 C 11.03 g/m*3 13.9 C 0 km/h
492 18-06-2010 02:26:02 13.8 C 10.96 g/m*3 13.8 C 0 km/h
493 18-06-2010 02:38:02 13.6 C 10.83 g/m*3 13.6 C 0 km/h
494 18-06-2010 02:50:03 13.5 C 10.76 g/m*3 13.5 C 0 km/h
495 18-06-2010 03:02:03 13.4 C 10.69 g/m*3 13.4 C 0 km/h
496 18-06-2010 03:14:03 13.6 C 10.83 g/m*3 13.6 C 0 km/h
497 18-06-2010 03:26:03 13.7 C 10.89 g/m*3 13.7 C 0 km/h
498 18-06-2010 03:38:03 13.5 C 10.76 g/m*3 13.5 C 0 km/h
499 18-06-2010 03:50:03 13.2 C 10.45 g/m*3 13.2 C 0 km/h
500 18-06-2010 04:02:03 12.9 C 10.26 g/m*3 12.9 C 0 km/h
Sensor: Nr:Datum:Temp:Abs-Feuchte:Windchill:Wind:
Aussen-T/F 501 18-06-2010 04:14:03 12.7 C 10.13 g/m*3 12.7 C 0 km/h
502 18-06-2010 04:26:03 12.4 C 9.94 g/m*3 12.4 C 0 km/h
503 18-06-2010 04:38:03 12.3 C 9.88 g/m*3 12.3 C 0 km/h
504 18-06-2010 04:50:03 12.2 C 9.82 g/m*3 12.2 C 0 km/h
505 18-06-2010 05:02:03 12.2 C 9.82 g/m*3 12.2 C 0 km/h
506 18-06-2010 05:14:03 12.2 C 9.82 g/m*3 12.2 C 0 km/h
507 18-06-2010 05:26:03 12.1 C 9.76 g/m*3 12.1 C 0 km/h
508 18-06-2010 05:38:03 12 C 9.7 g/m*3 12 C 0 km/h
509 18-06-2010 05:50:03 12 C 9.7 g/m*3 12 C 0 km/h
510 18-06-2010 06:02:03 12 C 9.7 g/m*3 12 C 0 km/h
511 18-06-2010 06:14:03 12.1 C 9.76 g/m*3 12.1 C 0 km/h
512 18-06-2010 06:26:03 12.2 C 9.82 g/m*3 12.2 C 0 km/h
513 18-06-2010 06:38:03 12.2 C 9.82 g/m*3 12.2 C 0 km/h
514 18-06-2010 06:50:04 12.4 C 9.83 g/m*3 12.4 C 0 km/h
515 18-06-2010 07:02:02 12.5 C 9.89 g/m*3 12.5 C 0 km/h
516 18-06-2010 07:14:02 12.7 C 9.91 g/m*3 12.7 C 0 km/h
517 18-06-2010 07:26:02 12.8 C 9.86 g/m*3 12.8 C 0 km/h
518 18-06-2010 07:38:02 12.8 C 9.86 g/m*3 12.8 C 0 km/h
519 18-06-2010 07:50:02 12.9 C 9.81 g/m*3 12.9 C 0 km/h
520 18-06-2010 08:02:02 13.1 C 9.7 g/m*3 13.1 C 0 km/h
521 18-06-2010 08:14:02 13.4 C 9.76 g/m*3 13.4 C 0 km/h
522 18-06-2010 08:26:02 13.5 C 9.83 g/m*3 13.5 C 0 km/h
523 18-06-2010 08:38:02 13.8 C 9.89 g/m*3 13.8 C 0 km/h
524 18-06-2010 08:50:02 14.4 C 10.01 g/m*3 14.4 C 0 km/h
525 18-06-2010 09:02:02 14.8 C 9.88 g/m*3 14.8 C 0 km/h
Sensor: Nr:Datum:Temp:Abs-Feuchte:Windchill:Wind:
Aussen-T/F 526 18-06-2010 09:14:02 15 C 9.49 g/m*3 15 C 0 km/h
527 18-06-2010 09:26:02 15.5 C 9.78 g/m*3 15.5 C 0 km/h
528 18-06-2010 09:38:02 15.7 C 9.77 g/m*3 15.7 C 0 km/h
529 18-06-2010 09:50:02 16.4 C 9.77 g/m*3 16.4 C 0 km/h
530 18-06-2010 10:02:03 16.5 C 9.27 g/m*3 16.5 C 0 km/h
531 18-06-2010 10:14:03 16.6 C 9.46 g/m*3 16.6 C 0 km/h
532 18-06-2010 10:26:02 16.3 C 9.43 g/m*3 16.3 C 0 km/h
533 18-06-2010 10:38:02 17 C 9.55 g/m*3 17 C 0 km/h
534 18-06-2010 10:50:02 16.4 C 8.93 g/m*3 16.4 C 0 km/h
535 18-06-2010 11:02:02 16.2 C 9.1 g/m*3 16.2 C 0 km/h
536 18-06-2010 11:14:02 15.9 C 9.07 g/m*3 15.9 C 0 km/h
537 18-06-2010 11:26:01 16.3 C 9.02 g/m*3 16.3 C 0 km/h
538 18-06-2010 11:38:02 16.6 C 8.9 g/m*3 16.6 C 0 km/h
539 18-06-2010 11:50:02 15.9 C 8.53 g/m*3 15.9 C 0 km/h
540 18-06-2010 12:02:02 15.9 C 8.94 g/m*3 15.9 C 0 km/h
541 18-06-2010 12:14:02 15.5 C 8.59 g/m*3 15.5 C 0 km/h
542 18-06-2010 12:26:01 15.3 C 8.88 g/m*3 15.3 C 0 km/h
543 18-06-2010 12:38:02 15 C 8.72 g/m*3 15 C 0 km/h
544 18-06-2010 12:50:02 15.6 C 8.91 g/m*3 15.6 C 0 km/h
545 18-06-2010 13:02:02 15.7 C 8.7 g/m*3 15.7 C 0 km/h
546 18-06-2010 13:14:03 16.3 C 8.6 g/m*3 16.3 C 0 km/h
547 18-06-2010 13:26:01 16.1 C 8.64 g/m*3 16.1 C 0 km/h
548 18-06-2010 13:38:02 15.8 C 8.48 g/m*3 15.8 C 0 km/h
549 18-06-2010 13:50:02 15.3 C 8.49 g/m*3 15.3 C 0 km/h
550 18-06-2010 14:02:02 15.3 C 8.49 g/m*3 15.3 C 0 km/h
Sensor: Nr:Datum:Temp:Abs-Feuchte:Windchill:Wind:
Aussen-T/F 551 18-06-2010 14:14:02 14.9 C 8.54 g/m*3 14.9 C 0 km/h
552 18-06-2010 14:26:01 14.7 C 8.44 g/m*3 14.7 C 0 km/h
553 18-06-2010 14:38:02 14.5 C 8.46 g/m*3 14.5 C 0 km/h
554 18-06-2010 14:50:02 14.9 C 8.54 g/m*3 14.9 C 0 km/h
555 18-06-2010 15:02:02 15.4 C 8.54 g/m*3 15.4 C 0 km/h
556 18-06-2010 15:14:03 14.5 C 8.33 g/m*3 14.5 C 0 km/h
557 18-06-2010 15:26:02 14.9 C 8.54 g/m*3 14.9 C 0 km/h
558 18-06-2010 15:38:02 15.2 C 8.44 g/m*3 15.2 C 0 km/h
559 18-06-2010 15:50:02 14.7 C 8.18 g/m*3 14.7 C 0 km/h
560 18-06-2010 16:02:03 14.8 C 8.49 g/m*3 14.8 C 0 km/h
561 18-06-2010 16:14:03 14.7 C 8.44 g/m*3 14.7 C 0 km/h
562 18-06-2010 16:26:03 15 C 8.33 g/m*3 15 C 0 km/h
563 18-06-2010 16:38:02 15.6 C 8.38 g/m*3 15.6 C 0 km/h
564 18-06-2010 16:50:01 16.8 C 7.86 g/m*3 16.8 C 0 km/h
565 18-06-2010 17:02:02 17.9 C 7.94 g/m*3 17.9 C 0 km/h
566 18-06-2010 17:14:02 19.1 C 7.21 g/m*3 19.1 C 0 km/h
567 18-06-2010 17:26:01 19.2 C 6.93 g/m*3 19.2 C 0 km/h
568 18-06-2010 17:38:02 19.8 C 7.34 g/m*3 19.8 C 0 km/h
569 18-06-2010 17:50:02 19.8 C 6.83 g/m*3 19.8 C 0 km/h
570 18-06-2010 18:02:03 21 C 6.96 g/m*3 21 C 0 km/h
571 18-06-2010 18:14:03 20.8 C 6.88 g/m*3 20.8 C 0 km/h
572 18-06-2010 18:26:02 21.5 C 6.98 g/m*3 21.5 C 0 km/h
573 18-06-2010 18:38:02 21.8 C 6.91 g/m*3 21.8 C 0 km/h
574 18-06-2010 18:50:02 22.2 C 6.87 g/m*3 22.2 C 0 km/h
575 18-06-2010 19:02:02 20.8 C 6.7 g/m*3 20.8 C 0 km/h
Sensor: Nr:Datum:Temp:Abs-Feuchte:Windchill:Wind:
Aussen-T/F 576 18-06-2010 19:14:02 19.9 C 7.04 g/m*3 19.9 C 0 km/h
577 18-06-2010 19:26:02 19.1 C 7.21 g/m*3 19.1 C 0 km/h
578 18-06-2010 19:38:02 18.9 C 7.45 g/m*3 18.9 C 0 km/h
579 18-06-2010 19:50:02 18.9 C 7.61 g/m*3 18.9 C 0 km/h
580 18-06-2010 20:02:02 18.5 C 7.44 g/m*3 18.5 C 0 km/h
581 18-06-2010 20:14:02 18.1 C 7.42 g/m*3 18.1 C 0 km/h
582 18-06-2010 20:26:02 17.8 C 7.59 g/m*3 17.8 C 0 km/h
583 18-06-2010 20:38:02 17.5 C 7.75 g/m*3 17.5 C 0 km/h
584 18-06-2010 20:50:01 17.2 C 7.91 g/m*3 17.2 C 0 km/h
585 18-06-2010 21:02:02 16 C 8.72 g/m*3 16 C 0 km/h
586 18-06-2010 21:14:02 15 C 9.36 g/m*3 15 C 0 km/h
587 18-06-2010 21:26:01 14.8 C 9.75 g/m*3 14.8 C 0 km/h
588 18-06-2010 21:38:01 14.7 C 9.82 g/m*3 14.7 C 0 km/h
589 18-06-2010 21:50:01 14.6 C 9.89 g/m*3 14.6 C 0 km/h
590 18-06-2010 22:02:01 14.7 C 9.82 g/m*3 14.7 C 0 km/h
591 18-06-2010 22:14:01 14.7 C 9.57 g/m*3 14.7 C 0 km/h
592 18-06-2010 22:26:02 14.8 C 9.5 g/m*3 14.8 C 0 km/h
593 18-06-2010 22:38:01 15 C 9.49 g/m*3 15 C 0 km/h
594 18-06-2010 22:50:02 15.1 C 9.29 g/m*3 15.1 C 0 km/h
595 18-06-2010 23:02:01 15 C 9.23 g/m*3 15 C 0 km/h
596 18-06-2010 23:14:01 14.8 C 8.61 g/m*3 14.8 C 0 km/h
597 18-06-2010 23:27:04 14.8 C 6.84 g/m*3 14.8 C 0 km/h
598 18-06-2010 23:39:04 14.7 C 6.55 g/m*3 14.7 C 0 km/h
599 18-06-2010 23:51:04 14.7 C 6.42 g/m*3 14.7 C 0 km/h
600 19-06-2010 00:03:04 14.6 C 6.63 g/m*3 14.6 C 0 km/h
Sensor: Nr:Datum:Temp:Abs-Feuchte:Windchill:Wind:
Aussen-T/F 601 19-06-2010 00:15:04 14.5 C 6.72 g/m*3 14.5 C 0 km/h
602 19-06-2010 00:27:04 14.4 C 6.92 g/m*3 14.4 C 0 km/h
603 19-06-2010 00:39:04 14.3 C 7.13 g/m*3 14.3 C 0 km/h
604 19-06-2010 00:51:04 14.2 C 7.08 g/m*3 14.2 C 0 km/h
605 19-06-2010 01:03:04 14 C 7.12 g/m*3 14 C 0 km/h
606 19-06-2010 01:15:04 13.8 C 7.27 g/m*3 13.8 C 0 km/h
607 19-06-2010 01:27:05 13.6 C 7.18 g/m*3 13.6 C 0 km/h
608 19-06-2010 01:39:05 13.4 C 7.09 g/m*3 13.4 C 0 km/h
609 19-06-2010 01:51:05 13.2 C 7 g/m*3 13.2 C 0 km/h
610 19-06-2010 02:03:05 12.8 C 6.94 g/m*3 12.8 C 0 km/h
611 19-06-2010 02:15:05 12.7 C 6.9 g/m*3 12.7 C 0 km/h
612 19-06-2010 02:27:05 12.5 C 6.82 g/m*3 12.5 C 0 km/h
613 19-06-2010 02:39:05 12.4 C 6.77 g/m*3 12.4 C 0 km/h
614 19-06-2010 02:51:05 12.4 C 6.77 g/m*3 12.4 C 0 km/h
615 19-06-2010 03:03:05 12.5 C 6.82 g/m*3 12.5 C 0 km/h
616 19-06-2010 03:15:05 12.5 C 6.71 g/m*3 12.5 C 0 km/h
617 19-06-2010 03:27:05 12.1 C 6.54 g/m*3 12.1 C 0 km/h
618 19-06-2010 03:39:05 11.8 C 6.74 g/m*3 11.8 C 0 km/h
619 19-06-2010 03:51:05 11.5 C 6.61 g/m*3 11.5 C 0 km/h
620 19-06-2010 04:03:05 11.2 C 6.49 g/m*3 11.2 C 0 km/h
621 19-06-2010 04:15:05 11 C 6.51 g/m*3 11 C 0 km/h
622 19-06-2010 04:27:05 10.9 C 6.56 g/m*3 10.9 C 0 km/h
623 19-06-2010 04:39:05 10.7 C 6.58 g/m*3 10.7 C 0 km/h
624 19-06-2010 04:51:05 10.9 C 6.66 g/m*3 10.9 C 0 km/h
625 19-06-2010 05:03:05 11 C 6.61 g/m*3 11 C 0 km/h
Sensor: Nr:Datum:Temp:Abs-Feuchte:Windchill:Wind:
Aussen-T/F 626 19-06-2010 05:15:05 11.1 C 6.55 g/m*3 11.1 C 0 km/h
627 19-06-2010 05:27:06 11.2 C 6.59 g/m*3 11.2 C 0 km/h
628 19-06-2010 05:39:06 11.2 C 6.59 g/m*3 11.2 C 0 km/h
629 19-06-2010 05:51:06 11.2 C 6.59 g/m*3 11.2 C 0 km/h
630 19-06-2010 06:03:06 11.4 C 6.77 g/m*3 11.4 C 0 km/h
631 19-06-2010 06:15:06 11.4 C 6.77 g/m*3 11.4 C 0 km/h
632 19-06-2010 06:27:06 11.5 C 6.82 g/m*3 11.5 C 0 km/h
633 19-06-2010 06:39:06 11.6 C 6.86 g/m*3 11.6 C 0 km/h
634 19-06-2010 06:51:06 11.6 C 6.86 g/m*3 11.6 C 0 km/h
635 19-06-2010 07:03:06 11.8 C 6.84 g/m*3 11.8 C 0 km/h
636 19-06-2010 07:15:06 11.8 C 6.84 g/m*3 11.8 C 0 km/h
637 19-06-2010 07:27:06 12 C 6.71 g/m*3 12 C 0 km/h
638 19-06-2010 07:39:06 11.9 C 6.57 g/m*3 11.9 C 0 km/h
639 19-06-2010 07:51:06 11.8 C 6.53 g/m*3 11.8 C 0 km/h
640 19-06-2010 08:03:06 12 C 6.5 g/m*3 12 C 0 km/h
641 19-06-2010 08:15:03 12 C 6.39 g/m*3 12 C 0 km/h
642 19-06-2010 08:27:03 12 C 6.5 g/m*3 12 C 0 km/h
643 19-06-2010 08:39:03 11.9 C 6.46 g/m*3 11.9 C 0 km/h
644 19-06-2010 08:51:02 11.9 C 6.46 g/m*3 11.9 C 0 km/h
645 19-06-2010 09:03:02 11.8 C 6.63 g/m*3 11.8 C 0 km/h
646 19-06-2010 09:15:03 12.1 C 6.97 g/m*3 12.1 C 0 km/h
647 19-06-2010 09:27:03 12.8 C 6.61 g/m*3 12.8 C 0 km/h
648 19-06-2010 09:39:02 12.9 C 6.42 g/m*3 12.9 C 0 km/h
649 19-06-2010 09:51:02 12.8 C 6.38 g/m*3 12.8 C 0 km/h
650 19-06-2010 10:03:02 12.9 C 6.31 g/m*3 12.9 C 0 km/h
Sensor: Nr:Datum:Temp:Abs-Feuchte:Windchill:Wind:
Aussen-T/F 651 19-06-2010 10:15:02 11.6 C 6.65 g/m*3 11.6 C 0 km/h
652 19-06-2010 10:27:02 11.8 C 6.95 g/m*3 11.8 C 0 km/h
653 19-06-2010 10:39:02 12.4 C 6.77 g/m*3 12.4 C 0 km/h
654 19-06-2010 10:51:02 12.4 C 6.45 g/m*3 12.4 C 0 km/h
655 19-06-2010 11:03:02 12.9 C 6.31 g/m*3 12.9 C 0 km/h
656 19-06-2010 11:15:02 13.6 C 6.47 g/m*3 13.6 C 0 km/h
657 19-06-2010 11:27:02 13.8 C 5.96 g/m*3 13.8 C 0 km/h
658 19-06-2010 11:39:02 15.8 C 6.19 g/m*3 15.8 C 0 km/h
659 19-06-2010 11:51:02 17.6 C 6.15 g/m*3 17.6 C 0 km/h
660 19-06-2010 12:03:02 16.6 C 5.65 g/m*3 16.6 C 0 km/h
661 19-06-2010 12:15:02 18.1 C 5.41 g/m*3 18.1 C 0 km/h
662 19-06-2010 12:27:02 16.9 C 5.03 g/m*3 16.9 C 0 km/h
663 19-06-2010 12:39:01 15.5 C 5.29 g/m*3 15.5 C 0 km/h
664 19-06-2010 12:51:02 14.3 C 5.41 g/m*3 14.3 C 0 km/h
665 19-06-2010 13:03:01 13.4 C 6.16 g/m*3 13.4 C 0 km/h
666 19-06-2010 13:15:02 15 C 6.28 g/m*3 15 C 0 km/h
667 19-06-2010 13:27:02 17.3 C 5.89 g/m*3 17.3 C 0 km/h
668 19-06-2010 13:39:01 20.4 C 5.48 g/m*3 20.4 C 0 km/h
669 19-06-2010 13:51:02 18.7 C 5.44 g/m*3 18.7 C 0 km/h
670 19-06-2010 14:03:02 19.3 C 5.31 g/m*3 19.3 C 0 km/h
671 19-06-2010 14:15:02 19.3 C 4.98 g/m*3 19.3 C 0 km/h
672 19-06-2010 14:27:02 18.3 C 4.69 g/m*3 18.3 C 0 km/h
673 19-06-2010 14:39:02 16.8 C 5 g/m*3 16.8 C 0 km/h
674 19-06-2010 14:51:02 17.6 C 5.1 g/m*3 17.6 C 0 km/h
675 19-06-2010 15:03:01 18.6 C 4.77 g/m*3 18.6 C 0 km/h
Sensor: Nr:Datum:Temp:Abs-Feuchte:Windchill:Wind:
Aussen-T/F 676 19-06-2010 15:15:01 18.7 C 4.8 g/m*3 18.7 C 0 km/h
677 19-06-2010 15:27:01 18.7 C 4.96 g/m*3 18.7 C 0 km/h
678 19-06-2010 15:39:02 17.4 C 4.74 g/m*3 17.4 C 0 km/h
679 19-06-2010 15:51:02 18.2 C 4.82 g/m*3 18.2 C 0 km/h
680 19-06-2010 16:03:02 17.9 C 4.73 g/m*3 17.9 C 0 km/h
681 19-06-2010 16:15:02 17.7 C 5.13 g/m*3 17.7 C 0 km/h
682 19-06-2010 16:27:02 17.9 C 5.04 g/m*3 17.9 C 0 km/h
683 19-06-2010 16:39:02 19.9 C 5.33 g/m*3 19.9 C 0 km/h
684 19-06-2010 16:51:02 20.2 C 4.55 g/m*3 20.2 C 0 km/h
685 19-06-2010 17:03:02 18.5 C 4.75 g/m*3 18.5 C 0 km/h
686 19-06-2010 17:15:02 18.2 C 5.13 g/m*3 18.2 C 0 km/h
687 19-06-2010 17:27:02 18 C 4.92 g/m*3 18 C 0 km/h
688 19-06-2010 17:39:02 16.8 C 5.15 g/m*3 16.8 C 0 km/h
689 19-06-2010 17:51:03 16.8 C 5.58 g/m*3 16.8 C 0 km/h
690 19-06-2010 18:03:03 16.7 C 5.26 g/m*3 16.7 C 0 km/h
691 19-06-2010 18:15:02 16.9 C 5.47 g/m*3 16.9 C 0 km/h
692 19-06-2010 18:27:02 16 C 5.59 g/m*3 16 C 0 km/h
693 19-06-2010 18:39:02 16.3 C 5.55 g/m*3 16.3 C 0 km/h
694 19-06-2010 18:51:01 15.8 C 5.52 g/m*3 15.8 C 0 km/h
695 19-06-2010 19:03:03 17.4 C 5.48 g/m*3 17.4 C 0 km/h
696 19-06-2010 19:15:01 17.2 C 5.13 g/m*3 17.2 C 0 km/h
697 19-06-2010 19:27:01 16.6 C 5.09 g/m*3 16.6 C 0 km/h
698 19-06-2010 19:39:02 16.1 C 5.35 g/m*3 16.1 C 0 km/h
699 19-06-2010 19:51:03 16.1 C 5.76 g/m*3 16.1 C 0 km/h
700 19-06-2010 20:03:03 15 C 5.26 g/m*3 15 C 0 km/h
Sensor: Nr:Datum:Temp:Abs-Feuchte:Windchill:Wind:
Aussen-T/F 701 19-06-2010 20:15:02 14.8 C 5.57 g/m*3 14.8 C 0 km/h
702 19-06-2010 20:27:03 14.8 C 5.83 g/m*3 14.8 C 0 km/h
703 19-06-2010 20:39:02 14.4 C 5.81 g/m*3 14.4 C 0 km/h
704 19-06-2010 20:51:01 14.5 C 6.09 g/m*3 14.5 C 0 km/h
705 19-06-2010 21:03:02 14.5 C 6.09 g/m*3 14.5 C 0 km/h
706 19-06-2010 21:15:02 14.3 C 6.02 g/m*3 14.3 C 0 km/h
707 19-06-2010 21:27:02 14.1 C 6.19 g/m*3 14.1 C 0 km/h
708 19-06-2010 21:39:02 14 C 6.27 g/m*3 14 C 0 km/h
709 19-06-2010 21:51:02 13.8 C 6.31 g/m*3 13.8 C 0 km/h
710 19-06-2010 22:03:04 13.6 C 6.24 g/m*3 13.6 C 0 km/h
711 19-06-2010 22:15:15 13.2 C 6.09 g/m*3 13.2 C 0 km/h
712 19-06-2010 22:27:15 12.8 C 5.94 g/m*3 12.8 C 0 km/h
713 19-06-2010 22:39:01 12.6 C 5.97 g/m*3 12.6 C 0 km/h
714 19-06-2010 22:51:02 12.4 C 6.12 g/m*3 12.4 C 0 km/h
715 19-06-2010 23:03:01 11.9 C 6.14 g/m*3 11.9 C 0 km/h
716 19-06-2010 23:15:02 12.2 C 6.26 g/m*3 12.2 C 0 km/h
717 19-06-2010 23:27:02 12.4 C 6.23 g/m*3 12.4 C 0 km/h
718 19-06-2010 23:39:01 12.1 C 6.22 g/m*3 12.1 C 0 km/h
719 19-06-2010 23:51:02 11.8 C 6.31 g/m*3 11.8 C 0 km/h
720 20-06-2010 00:03:02 11.5 C 6.3 g/m*3 11.5 C 0 km/h
721 20-06-2010 00:15:02 11.2 C 6.28 g/m*3 11.2 C 0 km/h
722 20-06-2010 00:27:02 10.8 C 6.33 g/m*3 10.8 C 0 km/h
723 20-06-2010 00:39:02 10.6 C 6.44 g/m*3 10.6 C 0 km/h
724 20-06-2010 00:51:02 10.5 C 6.4 g/m*3 10.5 C 0 km/h
725 20-06-2010 01:03:01 10.6 C 6.15 g/m*3 10.6 C 0 km/h
Sensor: Nr:Datum:Temp:Abs-Feuchte:Windchill:Wind:
Aussen-T/F 726 20-06-2010 01:15:02 10.6 C 5.95 g/m*3 10.6 C 0 km/h
727 20-06-2010 01:27:02 10.5 C 5.92 g/m*3 10.5 C 0 km/h
728 20-06-2010 01:40:01 10.4 C 5.88 g/m*3 10.4 C 0 km/h
729 20-06-2010 01:52:01 10.2 C 5.9 g/m*3 10.2 C 0 km/h
730 20-06-2010 02:04:01 10.1 C 5.96 g/m*3 10.1 C 0 km/h
731 20-06-2010 02:16:01 9.8 C 6.03 g/m*3 9.8 C 0 km/h
732 20-06-2010 02:28:01 9.6 C 6.05 g/m*3 9.6 C 0 km/h
733 20-06-2010 02:40:01 9.4 C 6.06 g/m*3 9.4 C 0 km/h
734 20-06-2010 02:52:01 9.3 C 6.2 g/m*3 9.3 C 0 km/h
735 20-06-2010 03:04:01 9.3 C 6.38 g/m*3 9.3 C 0 km/h
736 20-06-2010 03:16:01 9.5 C 6.46 g/m*3 9.5 C 0 km/h
737 20-06-2010 03:28:02 9.6 C 6.6 g/m*3 9.6 C 0 km/h
738 20-06-2010 03:40:02 9.5 C 6.74 g/m*3 9.5 C 0 km/h
739 20-06-2010 03:52:02 9.4 C 6.69 g/m*3 9.4 C 0 km/h
740 20-06-2010 04:04:02 9.1 C 6.74 g/m*3 9.1 C 0 km/h
741 20-06-2010 04:16:02 9.1 C 6.92 g/m*3 9.1 C 0 km/h
742 20-06-2010 04:28:02 9.2 C 7.05 g/m*3 9.2 C 0 km/h
743 20-06-2010 04:40:02 9.4 C 7.15 g/m*3 9.4 C 0 km/h
744 20-06-2010 04:52:02 9.2 C 7.05 g/m*3 9.2 C 0 km/h
745 20-06-2010 05:04:02 9.2 C 7.05 g/m*3 9.2 C 0 km/h
746 20-06-2010 05:16:02 9.2 C 7.05 g/m*3 9.2 C 0 km/h
747 20-06-2010 05:28:02 9.3 C 7.1 g/m*3 9.3 C 0 km/h
748 20-06-2010 05:40:02 9.4 C 7.15 g/m*3 9.4 C 0 km/h
749 20-06-2010 05:52:02 9.6 C 7.24 g/m*3 9.6 C 0 km/h
750 20-06-2010 06:04:02 9.6 C 7.24 g/m*3 9.6 C 0 km/h
Sensor: Nr:Datum:Temp:Abs-Feuchte:Windchill:Wind:
Aussen-T/F 751 20-06-2010 06:16:02 9.7 C 7.28 g/m*3 9.7 C 0 km/h
752 20-06-2010 06:28:02 10.1 C 7.28 g/m*3 10.1 C 0 km/h
753 20-06-2010 06:40:02 10.4 C 7.42 g/m*3 10.4 C 0 km/h
754 20-06-2010 06:52:02 10.6 C 7.32 g/m*3 10.6 C 0 km/h
755 20-06-2010 07:04:02 10.7 C 7.17 g/m*3 10.7 C 0 km/h
756 20-06-2010 07:16:02 10.7 C 7.17 g/m*3 10.7 C 0 km/h
757 20-06-2010 07:28:02 10.4 C 7.32 g/m*3 10.4 C 0 km/h
758 20-06-2010 07:40:02 10.2 C 7.52 g/m*3 10.2 C 0 km/h
759 20-06-2010 07:52:02 10.2 C 7.71 g/m*3 10.2 C 0 km/h
760 20-06-2010 08:04:01 10.3 C 7.85 g/m*3 10.3 C 0 km/h
761 20-06-2010 08:16:02 10.5 C 8.05 g/m*3 10.5 C 0 km/h
762 20-06-2010 08:28:02 10.4 C 8 g/m*3 10.4 C 0 km/h
763 20-06-2010 08:40:01 10.9 C 8.36 g/m*3 10.9 C 0 km/h
764 20-06-2010 08:52:03 10.8 C 8.2 g/m*3 10.8 C 0 km/h
765 20-06-2010 09:04:02 11.4 C 8.21 g/m*3 11.4 C 0 km/h
766 20-06-2010 09:16:03 12.4 C 8.52 g/m*3 12.4 C 0 km/h
767 20-06-2010 09:28:03 12.5 C 7.92 g/m*3 12.5 C 0 km/h
768 20-06-2010 09:40:02 13 C 7.83 g/m*3 13 C 0 km/h
769 20-06-2010 09:52:02 13.1 C 7.53 g/m*3 13.1 C 0 km/h
770 20-06-2010 10:04:01 13.6 C 7.77 g/m*3 13.6 C 0 km/h
771 20-06-2010 10:16:02 14 C 7.48 g/m*3 14 C 0 km/h
772 20-06-2010 10:28:02 13.7 C 6.99 g/m*3 13.7 C 0 km/h
773 20-06-2010 10:40:02 13.3 C 7.05 g/m*3 13.3 C 0 km/h
774 20-06-2010 10:52:02 13.1 C 6.96 g/m*3 13.1 C 0 km/h
775 20-06-2010 11:04:02 13 C 6.92 g/m*3 13 C 0 km/h
Sensor: Nr:Datum:Temp:Abs-Feuchte:Windchill:Wind:
Aussen-T/F 776 20-06-2010 11:16:01 12.6 C 7.08 g/m*3 12.6 C 0 km/h
777 20-06-2010 11:28:01 13.3 C 7.05 g/m*3 13.3 C 0 km/h
778 20-06-2010 11:40:02 14 C 7 g/m*3 14 C 0 km/h
779 20-06-2010 11:52:02 14.3 C 6.63 g/m*3 14.3 C 0 km/h
780 20-06-2010 12:04:02 14.4 C 6.55 g/m*3 14.4 C 0 km/h
781 20-06-2010 12:16:02 14.9 C 6.75 g/m*3 14.9 C 0 km/h
782 20-06-2010 12:28:02 15.3 C 6.53 g/m*3 15.3 C 0 km/h
783 20-06-2010 12:40:02 16.1 C 6.44 g/m*3 16.1 C 0 km/h
784 20-06-2010 12:52:01 15.6 C 6.25 g/m*3 15.6 C 0 km/h
785 20-06-2010 13:04:02 15.3 C 6.53 g/m*3 15.3 C 0 km/h
786 20-06-2010 13:16:01 15.6 C 6.65 g/m*3 15.6 C 0 km/h
787 20-06-2010 13:28:01 15.8 C 6.46 g/m*3 15.8 C 0 km/h
788 20-06-2010 13:40:01 16.9 C 6.33 g/m*3 16.9 C 0 km/h
789 20-06-2010 13:52:01 18.2 C 5.91 g/m*3 18.2 C 0 km/h
790 20-06-2010 14:04:01 16.9 C 5.47 g/m*3 16.9 C 0 km/h
791 20-06-2010 14:16:02 15.7 C 5.89 g/m*3 15.7 C 0 km/h
792 20-06-2010 14:28:02 15.9 C 6.09 g/m*3 15.9 C 0 km/h
793 20-06-2010 14:40:01 17.4 C 6.22 g/m*3 17.4 C 0 km/h
794 20-06-2010 14:52:02 16.7 C 5.68 g/m*3 16.7 C 0 km/h
795 20-06-2010 15:04:02 17.2 C 5.71 g/m*3 17.2 C 0 km/h
796 20-06-2010 15:16:02 17.6 C 5.85 g/m*3 17.6 C 0 km/h
797 20-06-2010 15:28:02 17.7 C 6.04 g/m*3 17.7 C 0 km/h
798 20-06-2010 15:40:02 18.7 C 6.08 g/m*3 18.7 C 0 km/h
799 20-06-2010 15:52:02 18.1 C 5.72 g/m*3 18.1 C 0 km/h
800 20-06-2010 16:04:02 16.4 C 5.72 g/m*3 16.4 C 0 km/h
Sensor: Nr:Datum:Temp:Abs-Feuchte:Windchill:Wind:
Aussen-T/F 801 20-06-2010 16:16:02 16.4 C 5.72 g/m*3 16.4 C 0 km/h
802 20-06-2010 16:28:02 16.7 C 5.97 g/m*3 16.7 C 0 km/h
803 20-06-2010 16:40:03 17.1 C 5.68 g/m*3 17.1 C 0 km/h
804 20-06-2010 16:52:02 17.1 C 5.39 g/m*3 17.1 C 0 km/h
805 20-06-2010 17:04:01 17 C 5.35 g/m*3 17 C 0 km/h
806 20-06-2010 17:16:02 16 C 5.72 g/m*3 16 C 0 km/h
807 20-06-2010 17:28:02 16.2 C 5.79 g/m*3 16.2 C 0 km/h
808 20-06-2010 17:40:02 16 C 5.86 g/m*3 16 C 0 km/h
809 20-06-2010 17:52:02 16.4 C 6.14 g/m*3 16.4 C 0 km/h
810 20-06-2010 18:04:03 16.5 C 6.32 g/m*3 16.5 C 0 km/h
811 20-06-2010 18:16:02 16.2 C 6.34 g/m*3 16.2 C 0 km/h
812 20-06-2010 18:28:02 16.4 C 6.28 g/m*3 16.4 C 0 km/h
813 20-06-2010 18:40:02 16.3 C 6.24 g/m*3 16.3 C 0 km/h
814 20-06-2010 18:52:02 16.2 C 6.07 g/m*3 16.2 C 0 km/h
815 20-06-2010 19:04:02 15.9 C 5.96 g/m*3 15.9 C 0 km/h
816 20-06-2010 19:16:01 15.7 C 5.89 g/m*3 15.7 C 0 km/h
817 20-06-2010 19:28:01 15.4 C 5.91 g/m*3 15.4 C 0 km/h
818 20-06-2010 19:40:02 15.6 C 6.12 g/m*3 15.6 C 0 km/h
819 20-06-2010 19:52:02 15.8 C 6.19 g/m*3 15.8 C 0 km/h
820 20-06-2010 20:04:02 15.6 C 6.25 g/m*3 15.6 C 0 km/h
821 20-06-2010 20:16:01 15.3 C 6.01 g/m*3 15.3 C 0 km/h
822 20-06-2010 20:28:01 15.2 C 6.1 g/m*3 15.2 C 0 km/h
823 20-06-2010 20:40:02 15.1 C 6.19 g/m*3 15.1 C 0 km/h
824 20-06-2010 20:52:02 15 C 6.28 g/m*3 15 C 0 km/h
825 20-06-2010 21:04:02 14.8 C 6.59 g/m*3 14.8 C 0 km/h
Sensor: Nr:Datum:Temp:Abs-Feuchte:Windchill:Wind:
Aussen-T/F 826 20-06-2010 21:16:01 14.7 C 6.55 g/m*3 14.7 C 0 km/h
827 20-06-2010 21:28:01 14.6 C 6.63 g/m*3 14.6 C 0 km/h
828 20-06-2010 21:40:02 14.5 C 6.84 g/m*3 14.5 C 0 km/h
829 20-06-2010 21:52:02 14.3 C 6.76 g/m*3 14.3 C 0 km/h
830 20-06-2010 22:04:02 14.2 C 6.84 g/m*3 14.2 C 0 km/h
831 20-06-2010 22:17:02 14 C 6.75 g/m*3 14 C 0 km/h
832 20-06-2010 22:29:02 13.8 C 6.91 g/m*3 13.8 C 0 km/h
833 20-06-2010 22:41:02 13.5 C 6.9 g/m*3 13.5 C 0 km/h
834 20-06-2010 22:53:02 13.4 C 6.97 g/m*3 13.4 C 0 km/h
835 20-06-2010 23:05:02 13.2 C 6.89 g/m*3 13.2 C 0 km/h
836 20-06-2010 23:17:02 13 C 6.92 g/m*3 13 C 0 km/h
837 20-06-2010 23:29:02 12.6 C 6.97 g/m*3 12.6 C 0 km/h
838 20-06-2010 23:41:02 12.3 C 6.84 g/m*3 12.3 C 0 km/h
839 20-06-2010 23:53:02 12.1 C 6.97 g/m*3 12.1 C 0 km/h

Legende:
   Min
   Max


Maximal/Minimal-Werte vom 14.06.2010 - 20.06.2010

Sensor Min Max Avg
Temp
(Aussen-T/F)
9.1 °C
20-06-2010  04:04:02
30.9 °C
14-06-2010  16:58:01
16.47 °C
Abs-Feuchte
(Aussen-T/F)
4.28 g/m*3
16-06-2010  12:36:01
12.44 g/m*3
17-06-2010  15:37:01
7.3 g/m*3
Windchill
(Aussen-T/F)
9.1 C
20-06-2010  04:04:02
30.9 C
14-06-2010  16:58:01
16.45 C

Die Daten stammen von einer Davis Vantage Pro 2 Wetter-Station und werden unter Linux mit der Software wview2wettercgi und aufbereitet. Alle Angaben erfolgen ohne Gewähr für ihre Vollständigkeit oder Richtigkeit.
Kontakt: Rainer Krienke krienke@uni-koblenz.de . Meine Webseiten an der Uni Koblenz oder privat.
Version: $Revision: 0.78 $